Time;durP1;ratioP1;P1;durP2;ratioP2;P2;SDS_P1;SDS_P2;PMS_P1;PMS_P2;Temp;Humidity;BMP_temperature;BMP_pressure;BME280_temperature;BME280_humidity;BME280_pressure;Samples;Min_cycle;Max_cycle;Signal;HPM_P1;HPM_P2
2021/08/19 00:01:21;;;;;;;7.55;2.25;;;17.00;99.90;;;;;;4929359;29;20060;-82
2021/08/19 00:03:49;;;;;;;5.13;2.05;;;17.10;99.90;;;;;;4962376;28;20047;-82
2021/08/19 00:06:17;;;;;;;5.95;2.55;;;17.10;99.90;;;;;;4947889;29;20048;-82
2021/08/19 00:08:45;;;;;;;3.95;2.28;;;17.10;99.90;;;;;;4970644;28;20045;-82
2021/08/19 00:11:12;;;;;;;3.97;2.20;;;17.00;99.90;;;;;;4946344;29;20052;-82
2021/08/19 00:13:40;;;;;;;3.40;2.03;;;17.00;99.90;;;;;;4944972;29;20051;-82
2021/08/19 00:16:08;;;;;;;3.28;1.98;;;17.00;99.90;;;;;;4954252;29;20058;-81
2021/08/19 00:18:38;;;;;;;6.18;2.42;;;17.00;99.90;;;;;;4945373;29;20047;-82
2021/08/19 00:21:06;;;;;;;5.38;2.35;;;17.00;99.90;;;;;;4960397;29;20051;-82
2021/08/19 00:23:37;;;;;;;5.88;2.50;;;17.00;99.90;;;;;;4959981;29;20051;-81
2021/08/19 00:26:05;;;;;;;2.97;2.28;;;16.90;99.90;;;;;;4945719;29;20051;-81
2021/08/19 00:28:33;;;;;;;4.50;2.70;;;16.90;99.90;;;;;;4944473;29;20051;-82
2021/08/19 00:31:01;;;;;;;5.70;2.45;;;16.90;99.90;;;;;;4959829;28;20074;-82
2021/08/19 00:33:29;;;;;;;5.18;2.97;;;16.80;99.90;;;;;;4946906;29;20044;-82
2021/08/19 00:35:57;;;;;;;7.60;2.40;;;16.80;99.90;;;;;;4960304;28;20070;-82
2021/08/19 00:38:24;;;;;;;6.68;3.17;;;16.80;99.90;;;;;;4969405;28;20047;-82
2021/08/19 00:40:52;;;;;;;5.07;2.42;;;16.80;99.90;;;;;;4928673;29;20051;-82
2021/08/19 00:43:21;;;;;;;9.55;2.97;;;16.80;99.90;;;;;;4948117;29;20055;-82
2021/08/19 00:45:49;;;;;;;8.38;2.67;;;16.70;99.90;;;;;;4964457;28;20063;-82
2021/08/19 00:48:18;;;;;;;5.72;2.97;;;16.70;99.90;;;;;;4955197;28;20148;-83
2021/08/19 00:50:47;;;;;;;7.03;3.50;;;16.70;99.90;;;;;;4950914;28;20059;-81
2021/08/19 00:53:17;;;;;;;5.18;2.80;;;16.70;99.90;;;;;;4948395;28;20202;-83
2021/08/19 00:55:47;;;;;;;6.53;2.60;;;16.70;99.90;;;;;;4949228;29;20457;-81
2021/08/19 00:58:15;;;;;;;6.18;3.38;;;16.70;99.90;;;;;;4928265;29;20052;-81
2021/08/19 01:00:44;;;;;;;10.18;3.75;;;16.60;99.90;;;;;;4945937;29;20055;-82
2021/08/19 01:03:12;;;;;;;4.75;2.65;;;16.60;99.90;;;;;;4949851;29;20050;-81
2021/08/19 01:05:41;;;;;;;7.43;3.25;;;16.60;99.90;;;;;;4949866;29;20251;-82
2021/08/19 01:08:09;;;;;;;4.95;2.85;;;16.60;99.90;;;;;;4954147;29;20495;-81
2021/08/19 01:10:37;;;;;;;3.50;2.47;;;16.50;99.90;;;;;;4947689;29;20058;-82
2021/08/19 01:13:05;;;;;;;11.15;3.40;;;16.50;99.90;;;;;;4962686;28;20048;-82
2021/08/19 01:15:33;;;;;;;4.78;2.97;;;16.50;99.90;;;;;;4963208;28;20556;-82
2021/08/19 01:18:01;;;;;;;5.90;3.30;;;16.40;99.90;;;;;;4951372;29;20056;-82
2021/08/19 01:20:31;;;;;;;7.07;3.15;;;16.50;99.90;;;;;;4956426;29;20047;-82
2021/08/19 01:23:02;;;;;;;7.10;3.50;;;16.50;99.90;;;;;;4954365;29;20054;-82
2021/08/19 01:25:30;;;;;;;8.65;3.70;;;16.40;99.90;;;;;;4949427;29;20067;-82
2021/08/19 01:27:58;;;;;;;6.13;3.22;;;17.10;99.90;;;;;;4963067;29;20232;-81
2021/08/19 01:30:27;;;;;;;10.68;4.70;;;16.50;99.90;;;;;;4947227;29;20052;-82
2021/08/19 01:32:55;;;;;;;9.55;3.65;;;16.50;99.90;;;;;;4963171;28;20048;-82
2021/08/19 01:35:27;;;;;;;6.18;2.90;;;16.40;99.90;;;;;;4947868;29;20059;-82
2021/08/19 01:37:55;;;;;;;7.40;3.40;;;16.40;99.90;;;;;;4971071;28;20054;-83
2021/08/19 01:40:23;;;;;;;6.10;3.85;;;16.30;99.90;;;;;;4948805;29;20052;-82
2021/08/19 01:42:51;;;;;;;11.18;3.60;;;16.30;99.90;;;;;;4946986;29;20353;-82
2021/08/19 01:45:21;;;;;;;9.43;4.38;;;16.30;99.90;;;;;;4949550;29;20048;-81
2021/08/19 01:47:49;;;;;;;9.30;3.60;;;16.30;99.90;;;;;;4972149;28;20058;-82
2021/08/19 01:50:17;;;;;;;8.43;4.47;;;16.20;99.90;;;;;;4964100;29;20417;-82
2021/08/19 01:52:45;;;;;;;6.25;3.50;;;15.60;99.90;;;;;;4947676;29;20062;-81
2021/08/19 01:55:13;;;;;;;9.27;4.00;;;16.20;99.90;;;;;;4948177;28;20065;-82
2021/08/19 01:57:41;;;;;;;12.65;4.95;;;16.20;99.90;;;;;;4949687;29;20067;-82
2021/08/19 02:00:11;;;;;;;7.57;3.05;;;16.20;99.90;;;;;;4949068;29;20051;-81
2021/08/19 02:02:38;;;;;;;7.43;3.95;;;16.20;99.90;;;;;;4959433;28;20052;-81
2021/08/19 02:05:07;;;;;;;10.90;4.03;;;16.20;99.90;;;;;;4956494;29;20043;-82
2021/08/19 02:07:35;;;;;;;10.98;4.22;;;16.10;99.90;;;;;;4970601;28;20058;-82
2021/08/19 02:10:03;;;;;;;7.28;3.20;;;16.20;99.90;;;;;;4948357;29;20112;-83
2021/08/19 02:12:30;;;;;;;8.95;4.00;;;16.10;99.90;;;;;;4965010;28;20059;-81
2021/08/19 02:14:58;;;;;;;10.00;4.72;;;16.10;99.90;;;;;;4948790;29;20085;-82
2021/08/19 02:17:26;;;;;;;8.18;4.43;;;16.10;99.90;;;;;;4953443;29;20070;-82
2021/08/19 02:19:54;;;;;;;11.82;3.70;;;16.10;99.90;;;;;;4965541;28;20040;-83
2021/08/19 02:22:21;;;;;;;8.68;4.70;;;16.10;99.90;;;;;;4949673;29;20043;-81
2021/08/19 02:24:50;;;;;;;14.60;5.30;;;16.10;99.90;;;;;;4947391;29;20048;-81
2021/08/19 02:27:17;;;;;;;11.75;4.47;;;16.10;99.90;;;;;;4947668;29;20054;-82
2021/08/19 02:29:45;;;;;;;9.57;4.20;;;16.10;99.90;;;;;;4962704;28;20055;-81
2021/08/19 02:32:13;;;;;;;13.98;4.72;;;16.10;99.90;;;;;;4948765;29;20055;-81
2021/08/19 02:34:40;;;;;;;8.88;4.18;;;16.10;99.90;;;;;;4963733;28;20047;-81
2021/08/19 02:37:08;;;;;;;10.98;4.35;;;16.00;99.90;;;;;;4963331;29;20058;-82
2021/08/19 02:39:36;;;;;;;12.02;5.32;;;16.00;99.90;;;;;;4946829;29;20437;-81
2021/08/19 02:42:04;;;;;;;8.88;4.43;;;15.90;99.90;;;;;;4947286;29;20051;-82
2021/08/19 02:44:32;;;;;;;10.70;4.68;;;15.90;99.90;;;;;;4948357;29;20055;-82
2021/08/19 02:47:00;;;;;;;12.85;5.18;;;15.90;99.90;;;;;;4956361;29;20055;-81
2021/08/19 02:49:28;;;;;;;9.05;5.00;;;15.90;99.90;;;;;;4948650;29;20058;-81
2021/08/19 02:51:56;;;;;;;9.25;4.97;;;15.90;99.90;;;;;;4946815;29;20052;-81
2021/08/19 02:54:24;;;;;;;8.65;4.10;;;15.90;99.90;;;;;;4962808;28;20556;-82
2021/08/19 02:56:51;;;;;;;9.55;4.90;;;15.90;99.90;;;;;;4962970;29;20043;-81
2021/08/19 02:59:19;;;;;;;11.02;4.85;;;15.90;99.90;;;;;;4970090;28;20298;-82
2021/08/19 03:01:47;;;;;;;11.85;5.15;;;15.90;99.90;;;;;;4970387;28;20441;-81
2021/08/19 03:04:15;;;;;;;8.88;4.43;;;15.90;99.90;;;;;;4946429;29;20047;-82
2021/08/19 03:06:43;;;;;;;9.77;5.53;;;15.90;99.90;;;;;;4951003;29;20066;-82
2021/08/19 03:09:10;;;;;;;10.50;4.88;;;15.90;99.90;;;;;;4965532;28;20051;-82
2021/08/19 03:11:38;;;;;;;16.23;5.47;;;15.90;99.90;;;;;;4947895;29;20056;-82
2021/08/19 03:14:06;;;;;;;8.07;4.65;;;15.90;99.90;;;;;;4962994;28;20055;-81
2021/08/19 03:16:34;;;;;;;11.15;5.47;;;15.90;99.90;;;;;;4950320;29;20066;-82
2021/08/19 03:19:03;;;;;;;14.93;6.68;;;15.90;99.90;;;;;;4963227;28;20051;-82
2021/08/19 03:21:30;;;;;;;11.70;5.35;;;15.80;99.90;;;;;;4948667;29;20074;-81
2021/08/19 03:23:59;;;;;;;12.15;6.75;;;15.80;99.90;;;;;;4946622;29;20266;-82
2021/08/19 03:26:26;;;;;;;11.98;5.93;;;15.80;99.90;;;;;;4952331;29;20043;-82
2021/08/19 03:28:54;;;;;;;13.45;6.57;;;15.80;99.90;;;;;;4946876;29;20052;-82
2021/08/19 03:31:22;;;;;;;14.73;6.10;;;16.00;99.90;;;;;;4947631;29;20543;-81
2021/08/19 03:33:50;;;;;;;12.60;6.00;;;15.70;99.90;;;;;;4935765;29;20050;-82
2021/08/19 03:36:18;;;;;;;15.35;6.70;;;15.80;99.90;;;;;;4948896;29;20051;-82
2021/08/19 03:38:46;;;;;;;18.10;6.82;;;15.70;99.90;;;;;;4957083;29;20042;-82
2021/08/19 03:41:16;;;;;;;10.02;5.72;;;15.70;99.90;;;;;;4962371;28;20067;-81
2021/08/19 03:43:45;;;;;;;11.60;5.95;;;15.80;99.90;;;;;;4947267;29;20054;-81
2021/08/19 03:46:14;;;;;;;14.27;5.75;;;15.70;99.90;;;;;;4950231;28;20062;-82
2021/08/19 03:48:43;;;;;;;12.13;6.07;;;15.70;99.90;;;;;;4949619;29;20066;-82
2021/08/19 03:51:11;;;;;;;12.75;6.72;;;15.80;99.90;;;;;;4947662;28;20052;-82
2021/08/19 03:53:39;;;;;;;13.65;5.72;;;15.70;99.90;;;;;;4948296;29;20070;-80
2021/08/19 03:56:07;;;;;;;13.52;5.90;;;15.70;99.90;;;;;;4945483;29;20056;-81
2021/08/19 03:58:37;;;;;;;12.35;5.35;;;15.70;99.90;;;;;;4945775;28;20063;-82
2021/08/19 04:01:06;;;;;;;11.05;6.10;;;15.70;99.90;;;;;;4943271;28;20052;-82
2021/08/19 04:03:36;;;;;;;13.60;5.93;;;15.70;99.90;;;;;;4939852;29;20055;-81
2021/08/19 04:06:03;;;;;;;10.20;5.60;;;15.70;99.90;;;;;;4942940;29;20066;-81
2021/08/19 04:08:31;;;;;;;9.23;5.28;;;15.60;99.90;;;;;;4953936;29;20058;-81
2021/08/19 04:10:59;;;;;;;16.30;5.85;;;15.60;99.90;;;;;;4947000;29;20056;-81
2021/08/19 04:13:27;;;;;;;9.02;5.95;;;15.60;99.90;;;;;;4946602;29;20410;-81
2021/08/19 04:15:54;;;;;;;15.63;7.10;;;15.60;99.90;;;;;;4946219;29;20137;-81
2021/08/19 04:18:23;;;;;;;13.60;6.22;;;15.60;99.90;;;;;;4960724;28;20070;-81
2021/08/19 04:20:50;;;;;;;16.42;7.63;;;15.60;99.90;;;;;;4946844;29;20052;-82
2021/08/19 04:23:18;;;;;;;9.68;4.82;;;15.60;99.90;;;;;;4944750;29;20048;-82
2021/08/19 04:25:46;;;;;;;13.93;5.75;;;15.60;99.90;;;;;;4961023;28;20056;-81
2021/08/19 04:28:14;;;;;;;12.80;5.63;;;15.60;99.90;;;;;;4945212;29;20063;-82
2021/08/19 04:30:42;;;;;;;12.63;5.63;;;15.50;99.90;;;;;;4946351;29;20048;-82
2021/08/19 04:33:09;;;;;;;9.68;4.88;;;15.50;99.90;;;;;;4961349;28;20144;-82
2021/08/19 04:35:39;;;;;;;19.00;5.95;;;15.50;99.90;;;;;;4945313;29;20345;-81
2021/08/19 04:38:07;;;;;;;13.70;5.38;;;15.50;99.90;;;;;;4971700;28;20070;-82
2021/08/19 04:40:35;;;;;;;11.60;5.90;;;15.50;99.90;;;;;;4945288;29;20047;-82
2021/08/19 04:43:03;;;;;;;10.90;5.15;;;15.50;99.90;;;;;;4946789;29;20048;-81
2021/08/19 04:45:31;;;;;;;19.55;5.75;;;15.40;99.90;;;;;;4946728;29;20055;-82
2021/08/19 04:47:59;;;;;;;10.98;6.10;;;15.40;99.90;;;;;;4948035;29;20052;-82
2021/08/19 04:50:27;;;;;;;10.63;5.47;;;15.40;99.90;;;;;;4960305;28;20064;-81
2021/08/19 04:52:55;;;;;;;12.32;5.35;;;15.40;99.90;;;;;;4944796;29;20102;-83
2021/08/19 04:55:22;;;;;;;11.02;5.43;;;15.40;99.90;;;;;;4960442;28;20059;-82
2021/08/19 04:57:50;;;;;;;12.35;5.90;;;15.40;99.90;;;;;;4959878;29;20082;-82
2021/08/19 05:00:18;;;;;;;16.58;6.70;;;15.40;99.90;;;;;;4944584;29;20055;-80
2021/08/19 05:02:46;;;;;;;13.93;5.53;;;15.40;99.90;;;;;;4941009;28;20063;-82
2021/08/19 05:05:14;;;;;;;12.30;5.88;;;15.40;99.90;;;;;;4938338;29;20267;-82
2021/08/19 05:07:42;;;;;;;16.00;6.00;;;15.30;99.90;;;;;;4962142;28;20047;-81
2021/08/19 05:10:10;;;;;;;10.52;5.28;;;15.30;99.90;;;;;;4943661;29;20056;-81
2021/08/19 05:12:38;;;;;;;15.15;6.00;;;15.30;99.90;;;;;;4943835;29;20044;-82
2021/08/19 05:15:06;;;;;;;12.95;4.55;;;15.30;99.90;;;;;;4958989;28;20058;-81
2021/08/19 05:17:34;;;;;;;13.68;5.68;;;15.30;99.90;;;;;;4944175;29;20535;-81
2021/08/19 05:20:05;;;;;;;14.30;5.88;;;15.30;99.90;;;;;;4960232;28;20441;-81
2021/08/19 05:22:32;;;;;;;13.25;6.57;;;15.30;99.90;;;;;;4945585;29;20059;-82
2021/08/19 05:25:00;;;;;;;13.15;5.32;;;15.30;99.90;;;;;;4945663;29;20044;-82
2021/08/19 05:27:29;;;;;;;14.25;6.63;;;15.20;99.90;;;;;;4945753;29;20393;-82
2021/08/19 05:30:09;;;;;;;19.30;6.50;;;15.20;99.90;;;;;;4963086;28;20052;-81
2021/08/19 05:32:38;;;;;;;;;;;15.30;99.90;;;;;;4963301;29;20409;-83
2021/08/19 05:35:06;;;;;;;16.33;6.50;;;15.20;99.90;;;;;;4948796;29;19922;-81
2021/08/19 05:37:34;;;;;;;10.48;5.80;;;15.20;99.90;;;;;;4954240;29;20063;-82
2021/08/19 05:40:02;;;;;;;15.75;7.00;;;15.20;99.90;;;;;;4952959;29;20053;-81
2021/08/19 05:42:30;;;;;;;12.98;6.28;;;15.20;99.90;;;;;;4963323;28;20077;-82
2021/08/19 05:44:58;;;;;;;14.73;6.18;;;15.10;99.90;;;;;;4948261;29;20136;-81
2021/08/19 05:47:25;;;;;;;17.73;6.00;;;15.20;99.90;;;;;;4953098;28;20052;-82
2021/08/19 05:49:53;;;;;;;14.45;5.55;;;15.20;99.90;;;;;;4947120;29;20051;-83
2021/08/19 05:52:21;;;;;;;14.70;6.22;;;15.20;99.90;;;;;;4947361;29;20591;-82
2021/08/19 05:54:50;;;;;;;12.68;5.80;;;15.20;99.90;;;;;;4936162;29;20052;-82
2021/08/19 05:57:18;;;;;;;15.88;6.50;;;15.20;99.90;;;;;;4960710;29;20051;-81
2021/08/19 05:59:46;;;;;;;12.25;5.95;;;15.30;99.90;;;;;;4948692;29;20047;-82
2021/08/19 06:02:17;;;;;;;15.63;6.20;;;15.20;99.90;;;;;;4948274;29;20055;-82
2021/08/19 06:04:45;;;;;;;15.80;6.53;;;15.20;99.90;;;;;;4949708;29;20040;-82
2021/08/19 06:07:13;;;;;;;10.18;5.35;;;15.20;99.90;;;;;;4956158;29;20312;-82
2021/08/19 06:09:42;;;;;;;17.20;5.85;;;15.20;99.90;;;;;;4950431;29;20048;-82
2021/08/19 06:12:10;;;;;;;11.98;5.93;;;15.20;99.90;;;;;;4931595;29;20062;-82
2021/08/19 06:14:39;;;;;;;16.98;7.63;;;15.20;99.90;;;;;;4958477;29;20059;-81
2021/08/19 06:17:07;;;;;;;13.32;6.57;;;15.30;99.90;;;;;;4975157;28;20062;-82
2021/08/19 06:19:35;;;;;;;15.63;6.45;;;15.30;99.90;;;;;;4985552;28;20054;-81
2021/08/19 06:22:04;;;;;;;13.93;6.90;;;15.30;99.90;;;;;;4986986;28;20053;-82
2021/08/19 06:24:33;;;;;;;14.80;6.43;;;15.30;99.90;;;;;;5002162;28;20050;-82
2021/08/19 06:27:02;;;;;;;12.63;7.47;;;15.30;99.90;;;;;;4986964;28;20039;-82
2021/08/19 06:29:30;;;;;;;16.55;7.32;;;15.40;99.90;;;;;;5002556;28;20073;-80
2021/08/19 06:31:57;;;;;;;18.27;7.88;;;15.40;99.90;;;;;;5001354;28;20046;-81
2021/08/19 06:34:25;;;;;;;15.52;8.23;;;15.40;99.90;;;;;;4984636;28;20531;-82
2021/08/19 06:36:54;;;;;;;14.27;6.78;;;15.40;99.90;;;;;;5003658;28;20047;-82
2021/08/19 06:39:21;;;;;;;9.35;5.70;;;15.50;99.90;;;;;;5023594;28;20042;-81
2021/08/19 06:41:50;;;;;;;17.33;6.50;;;15.50;99.90;;;;;;4984331;28;20523;-82
2021/08/19 06:44:18;;;;;;;13.75;7.28;;;15.50;99.90;;;;;;5017003;28;20544;-81
2021/08/19 06:46:46;;;;;;;17.73;7.47;;;15.60;99.90;;;;;;4986218;28;20237;-81
2021/08/19 06:49:15;;;;;;;15.10;7.00;;;15.60;99.90;;;;;;4984751;28;20058;-82
2021/08/19 06:51:44;;;;;;;13.13;6.47;;;15.70;99.90;;;;;;4985868;28;20366;-81
2021/08/19 06:54:12;;;;;;;19.77;7.55;;;15.70;99.90;;;;;;5000838;28;20049;-81
2021/08/19 06:56:40;;;;;;;16.80;6.82;;;15.80;99.90;;;;;;4984436;28;20047;-82
2021/08/19 06:59:07;;;;;;;14.85;6.60;;;15.80;99.90;;;;;;4997754;28;20059;-82
2021/08/19 07:01:35;;;;;;;17.17;7.07;;;15.80;99.90;;;;;;4976948;28;20061;-82
2021/08/19 07:04:04;;;;;;;14.70;6.50;;;15.80;99.90;;;;;;5000356;28;20394;-81
2021/08/19 07:06:31;;;;;;;14.75;6.60;;;15.80;99.90;;;;;;4988236;28;20054;-83
2021/08/19 07:09:00;;;;;;;15.60;6.18;;;15.90;99.90;;;;;;4994715;28;20054;-82
2021/08/19 07:11:28;;;;;;;13.00;6.13;;;15.90;99.90;;;;;;4989219;28;20050;-82
2021/08/19 07:13:56;;;;;;;24.98;9.05;;;15.90;99.90;;;;;;5000286;28;20045;-81
2021/08/19 07:16:26;;;;;;;19.05;7.63;;;15.90;99.90;;;;;;4983584;28;20055;-82
2021/08/19 07:18:54;;;;;;;19.03;7.47;;;16.00;99.90;;;;;;5017212;28;20065;-82
2021/08/19 07:21:22;;;;;;;17.00;7.32;;;16.10;99.90;;;;;;4984229;28;20043;-83
2021/08/19 07:23:50;;;;;;;18.25;6.78;;;16.10;99.90;;;;;;5001056;28;20066;-82
2021/08/19 07:26:22;;;;;;;17.67;7.28;;;16.20;99.90;;;;;;5017482;28;20059;-83
2021/08/19 07:28:55;;;;;;;17.23;8.50;;;16.30;99.90;;;;;;4970087;28;20050;-82
2021/08/19 07:31:25;;;;;;;16.23;7.20;;;16.30;99.90;;;;;;4983969;28;20050;-82
2021/08/19 07:33:54;;;;;;;18.67;8.13;;;16.40;99.90;;;;;;5001473;28;20058;-81
2021/08/19 07:36:22;;;;;;;18.83;7.60;;;16.40;99.90;;;;;;4977100;28;20307;-82
2021/08/19 07:38:49;;;;;;;13.70;6.60;;;16.40;99.90;;;;;;4991900;28;20054;-81
2021/08/19 07:41:17;;;;;;;17.48;7.38;;;16.40;99.90;;;;;;5001540;28;20061;-82
2021/08/19 07:43:45;;;;;;;22.55;8.50;;;16.50;99.90;;;;;;4984670;28;20225;-82
2021/08/19 07:46:13;;;;;;;12.98;6.45;;;16.50;99.90;;;;;;4984753;28;20051;-82
2021/08/19 07:48:42;;;;;;;13.95;7.13;;;16.60;99.90;;;;;;4982783;28;20061;-82
2021/08/19 07:51:10;;;;;;;15.10;7.15;;;16.60;99.90;;;;;;4999516;28;20057;-81
2021/08/19 07:53:38;;;;;;;13.98;6.80;;;16.60;99.90;;;;;;4999489;28;20077;-81
2021/08/19 07:56:06;;;;;;;15.65;6.78;;;16.60;99.90;;;;;;4999487;28;20062;-81
2021/08/19 07:58:37;;;;;;;15.48;6.10;;;16.70;99.90;;;;;;4983990;28;20046;-81
2021/08/19 08:01:05;;;;;;;;;;;16.70;99.90;;;;;;4985378;28;20213;-82
2021/08/19 08:03:33;;;;;;;17.75;7.63;;;16.70;99.90;;;;;;4984577;28;19928;-82
2021/08/19 08:06:02;;;;;;;14.73;6.07;;;16.80;99.90;;;;;;4988276;28;20816;-83
2021/08/19 08:08:29;;;;;;;14.20;7.72;;;16.80;99.90;;;;;;5005727;28;20050;-82
2021/08/19 08:10:57;;;;;;;16.95;8.23;;;16.90;99.90;;;;;;4989286;28;20047;-81
2021/08/19 08:13:25;;;;;;;12.77;5.75;;;16.90;99.90;;;;;;4983072;28;20062;-81
2021/08/19 08:15:53;;;;;;;13.77;6.18;;;16.90;99.90;;;;;;4982780;28;20069;-82
2021/08/19 08:18:21;;;;;;;13.25;5.75;;;17.00;99.90;;;;;;4998842;28;20046;-82
2021/08/19 08:20:49;;;;;;;14.90;5.75;;;17.00;99.90;;;;;;4989014;28;20047;-82
2021/08/19 08:23:20;;;;;;;14.93;6.90;;;17.00;99.90;;;;;;4981630;28;20050;-82
2021/08/19 08:25:49;;;;;;;15.15;7.38;;;17.00;99.90;;;;;;4999929;28;20056;-82
2021/08/19 08:28:26;;;;;;;16.65;7.25;;;17.10;99.90;;;;;;4984414;28;20046;-82
2021/08/19 08:30:54;;;;;;;14.80;7.40;;;17.10;99.90;;;;;;5015196;28;20066;-82
2021/08/19 08:33:23;;;;;;;14.70;6.72;;;17.10;99.90;;;;;;4983808;28;20049;-82
2021/08/19 08:35:51;;;;;;;11.88;6.25;;;17.20;99.90;;;;;;4984504;28;20050;-82
2021/08/19 08:38:21;;;;;;;15.13;5.60;;;17.20;99.90;;;;;;4993152;28;20053;-82
2021/08/19 08:40:51;;;;;;;11.32;5.45;;;17.30;99.90;;;;;;5000044;28;20061;-82
2021/08/19 08:43:21;;;;;;;11.25;5.38;;;17.30;99.90;;;;;;4999506;28;20058;-81
2021/08/19 08:45:51;;;;;;;13.93;5.65;;;17.30;99.90;;;;;;4998618;28;20049;-82
2021/08/19 08:48:23;;;;;;;14.20;5.80;;;17.40;99.90;;;;;;4983749;28;20059;-81
2021/08/19 08:50:56;;;;;;;16.35;6.18;;;17.40;99.90;;;;;;4984711;28;20063;-82
2021/08/19 08:53:25;;;;;;;11.85;6.15;;;18.00;99.90;;;;;;4982344;28;20058;-82
2021/08/19 08:55:55;;;;;;;13.18;5.85;;;17.40;99.90;;;;;;4983268;28;20058;-82
2021/08/19 08:58:23;;;;;;;18.08;6.35;;;17.50;99.90;;;;;;4983593;28;20046;-82
2021/08/19 09:00:52;;;;;;;10.50;5.35;;;17.60;99.90;;;;;;4982174;28;20046;-80
2021/08/19 09:03:21;;;;;;;9.55;5.28;;;17.70;99.90;;;;;;5001503;28;20060;-81
2021/08/19 09:05:50;;;;;;;14.05;6.43;;;17.80;99.90;;;;;;4985682;28;20050;-82
2021/08/19 09:08:26;;;;;;;11.70;5.43;;;17.90;99.90;;;;;;4989636;28;20050;-82
2021/08/19 09:10:57;;;;;;;9.50;4.82;;;18.00;99.90;;;;;;4986899;28;20055;-82
2021/08/19 09:13:30;;;;;;;11.95;5.43;;;18.10;99.90;;;;;;4986880;28;20053;-81
2021/08/19 09:16:18;;;;;;;14.27;5.68;;;18.10;99.50;;;;;;5001316;28;20061;-82
2021/08/19 09:18:47;;;;;;;14.30;5.72;;;18.10;99.20;;;;;;5003034;28;20053;-82
2021/08/19 09:21:23;;;;;;;14.60;4.75;;;18.00;99.00;;;;;;5002190;28;20131;-81
2021/08/19 09:24:23;;;;;;;13.80;6.75;;;17.90;99.10;;;;;;5002803;28;20058;-81
2021/08/19 09:26:54;;;;;;;12.43;4.60;;;17.90;98.40;;;;;;5002300;28;20058;-82
2021/08/19 09:29:24;;;;;;;11.85;4.43;;;17.90;98.70;;;;;;4987403;28;20042;-82
2021/08/19 09:31:55;;;;;;;11.52;4.70;;;17.80;98.70;;;;;;5002564;28;20049;-82
2021/08/19 09:34:25;;;;;;;8.57;4.07;;;18.00;98.50;;;;;;4988052;28;20043;-82
2021/08/19 09:37:03;;;;;;;8.45;4.63;;;18.00;98.30;;;;;;4991849;28;20046;-82
2021/08/19 09:39:34;;;;;;;12.00;5.05;;;18.00;98.20;;;;;;5010160;28;20055;-81
2021/08/19 09:42:02;;;;;;;7.47;4.50;;;18.10;98.10;;;;;;4987568;28;20043;-81
2021/08/19 09:44:33;;;;;;;8.50;4.32;;;18.10;97.90;;;;;;5018541;28;20150;-82
2021/08/19 09:47:03;;;;;;;10.75;4.80;;;18.10;97.60;;;;;;5001478;28;20050;-80
2021/08/19 09:49:35;;;;;;;12.40;4.82;;;18.10;97.40;;;;;;5019030;28;20062;-83
2021/08/19 09:52:13;;;;;;;10.23;4.15;;;18.20;97.20;;;;;;4987360;28;20046;-82
2021/08/19 09:54:42;;;;;;;12.05;4.65;;;18.30;96.80;;;;;;4986529;28;20058;-81
2021/08/19 09:57:10;;;;;;;13.65;4.28;;;18.50;96.80;;;;;;4988220;28;20050;-82
2021/08/19 09:59:41;;;;;;;10.05;4.85;;;18.40;96.70;;;;;;5001733;28;20070;-82
2021/08/19 10:02:10;;;;;;;11.13;4.32;;;18.40;96.80;;;;;;4986191;28;20053;-82
2021/08/19 10:04:38;;;;;;;7.25;4.03;;;18.40;96.80;;;;;;5001164;28;20061;-81
2021/08/19 10:07:06;;;;;;;12.02;4.15;;;18.40;96.80;;;;;;5007931;28;20061;-82
2021/08/19 10:09:34;;;;;;;13.07;4.70;;;18.40;96.90;;;;;;4989777;28;20055;-83
2021/08/19 10:12:02;;;;;;;9.68;4.22;;;18.30;97.10;;;;;;4985524;28;20057;-81
2021/08/19 10:14:31;;;;;;;12.77;4.78;;;18.40;97.10;;;;;;4983350;28;20058;-81
2021/08/19 10:16:59;;;;;;;9.23;4.47;;;18.40;96.60;;;;;;4984995;28;20054;-82
2021/08/19 10:19:36;;;;;;;11.40;4.63;;;18.30;96.90;;;;;;5017324;28;20408;-82
2021/08/19 10:22:11;;;;;;;14.20;4.78;;;18.30;96.90;;;;;;4987001;28;20562;-83
2021/08/19 10:24:42;;;;;;;16.77;5.60;;;18.30;96.80;;;;;;5018216;28;20543;-82
2021/08/19 10:27:20;;;;;;;11.10;4.45;;;18.20;96.90;;;;;;4986785;28;20050;-82
2021/08/19 10:30:21;;;;;;;11.85;4.30;;;18.20;97.20;;;;;;5016685;28;20065;-81
2021/08/19 10:32:56;;;;;;;8.48;3.70;;;18.30;96.80;;;;;;4985786;28;20061;-83
2021/08/19 10:35:28;;;;;;;11.20;4.50;;;18.40;97.00;;;;;;4985923;28;20054;-82
2021/08/19 10:38:01;;;;;;;11.25;4.18;;;18.50;96.70;;;;;;4993762;28;20062;-82
2021/08/19 10:40:34;;;;;;;12.93;4.50;;;18.60;96.50;;;;;;4983919;28;20047;-82
2021/08/19 10:43:32;;;;;;;10.48;4.68;;;18.70;96.10;;;;;;5016788;28;20046;-81
2021/08/19 10:46:10;;;;;;;8.63;4.00;;;18.80;95.90;;;;;;4972386;28;20070;-82
2021/08/19 10:48:56;;;;;;;11.93;4.72;;;18.70;95.90;;;;;;5000074;28;20050;-82
2021/08/19 10:51:28;;;;;;;9.32;5.10;;;18.80;95.80;;;;;;4985732;28;20508;-82
2021/08/19 10:53:56;;;;;;;11.35;4.60;;;18.80;95.80;;;;;;5000644;28;20043;-82
2021/08/19 10:56:53;;;;;;;9.55;4.03;;;18.90;96.00;;;;;;5001035;28;20598;-82
2021/08/19 10:59:29;;;;;;;10.23;4.20;;;18.90;95.50;;;;;;4975345;28;20058;-82
2021/08/19 11:01:59;;;;;;;13.82;4.43;;;18.80;95.50;;;;;;5000108;28;20046;-83
2021/08/19 11:04:43;;;;;;;21.83;11.15;;;18.90;95.60;;;;;;4955888;28;20042;-82
2021/08/19 11:07:11;;;;;;;17.15;7.53;;;18.90;95.40;;;;;;5004598;28;20061;-83
2021/08/19 11:09:39;;;;;;;11.48;5.30;;;19.00;95.60;;;;;;4984881;28;20057;-83
2021/08/19 11:12:08;;;;;;;17.45;6.22;;;19.10;95.60;;;;;;5002382;28;20061;-82
2021/08/19 11:14:37;;;;;;;11.00;4.32;;;19.20;95.30;;;;;;5017097;28;20047;-83
2021/08/19 11:17:07;;;;;;;9.65;4.13;;;19.20;95.30;;;;;;4985828;28;20054;-83
2021/08/19 11:19:35;;;;;;;9.80;3.80;;;19.30;95.20;;;;;;4997597;28;20050;-82
2021/08/19 11:22:04;;;;;;;9.60;3.78;;;19.40;94.90;;;;;;4984098;28;20050;-82
2021/08/19 11:24:37;;;;;;;7.60;3.60;;;19.40;94.90;;;;;;4999386;28;20050;-83
2021/08/19 11:27:07;;;;;;;7.88;3.50;;;19.50;94.80;;;;;;4984224;28;20039;-82
2021/08/19 11:29:40;;;;;;;9.82;3.17;;;19.60;94.70;;;;;;5015645;28;20049;-82
2021/08/19 11:32:28;;;;;;;9.70;3.60;;;19.60;94.70;;;;;;4989009;28;20053;-82
2021/08/19 11:34:56;;;;;;;7.85;3.00;;;19.70;94.50;;;;;;4984275;28;20051;-82
2021/08/19 11:37:33;;;;;;;11.73;4.03;;;19.70;94.60;;;;;;4989070;28;20057;-82
2021/08/19 11:40:03;;;;;;;8.98;3.72;;;19.80;94.40;;;;;;4999289;28;20054;-82
2021/08/19 11:42:33;;;;;;;8.70;3.33;;;19.90;94.20;;;;;;5000625;28;20055;-82
2021/08/19 11:45:21;;;;;;;8.73;3.33;;;20.00;94.20;;;;;;5016041;28;20513;-82
2021/08/19 11:47:51;;;;;;;9.55;4.85;;;20.10;93.80;;;;;;4987532;28;20054;-83
2021/08/19 11:50:24;;;;;;;7.25;2.95;;;20.50;93.90;;;;;;5014626;28;20043;-82
2021/08/19 11:53:00;;;;;;;8.18;3.45;;;20.20;93.90;;;;;;5007625;28;20387;-82
2021/08/19 11:55:34;;;;;;;9.35;3.40;;;20.30;93.70;;;;;;5000338;28;20039;-81
2021/08/19 11:58:20;;;;;;;8.82;3.70;;;20.30;93.80;;;;;;5015378;28;20034;-82
2021/08/19 12:01:07;;;;;;;9.63;3.17;;;20.40;93.60;;;;;;4998915;28;20066;-81
2021/08/19 12:03:43;;;;;;;7.88;3.70;;;20.70;93.60;;;;;;4988018;28;20050;-83
2021/08/19 12:06:19;;;;;;;11.38;3.85;;;20.70;93.70;;;;;;4979284;28;20054;-82
2021/08/19 12:09:05;;;;;;;7.10;3.63;;;20.80;93.50;;;;;;4988862;28;20051;-82
2021/08/19 12:11:43;;;;;;;11.98;3.90;;;20.90;93.40;;;;;;4982157;28;20062;-82
2021/08/19 12:14:13;;;;;;;10.75;4.03;;;21.00;93.20;;;;;;4998429;28;20065;-81
2021/08/19 12:16:49;;;;;;;9.38;3.67;;;21.00;93.20;;;;;;4997940;28;20054;-82
2021/08/19 12:19:20;;;;;;;12.20;4.30;;;21.10;93.10;;;;;;4966271;28;20229;-83
2021/08/19 12:21:55;;;;;;;10.83;3.40;;;21.10;93.20;;;;;;4967391;28;20123;-82
2021/08/19 12:24:39;;;;;;;8.60;3.63;;;21.20;93.00;;;;;;4979704;28;20395;-82
2021/08/19 12:27:16;;;;;;;7.35;3.53;;;21.40;93.10;;;;;;4978123;28;20054;-81
2021/08/19 12:29:47;;;;;;;11.02;4.22;;;21.50;92.80;;;;;;4990876;28;20046;-82
2021/08/19 12:32:27;;;;;;;10.75;3.53;;;21.60;92.50;;;;;;5005160;28;20050;-82
2021/08/19 12:35:13;;;;;;;10.88;3.72;;;21.70;92.40;;;;;;4987655;28;20046;-82
2021/08/19 12:37:56;;;;;;;11.43;3.67;;;21.70;92.30;;;;;;5020174;28;20530;-82
2021/08/19 12:40:28;;;;;;;6.50;3.20;;;21.80;92.40;;;;;;4983033;28;20046;-82
2021/08/19 12:43:08;;;;;;;7.03;3.10;;;21.90;92.50;;;;;;4994172;28;20217;-82
2021/08/19 12:45:38;;;;;;;6.88;2.75;;;22.00;91.90;;;;;;4995905;28;20316;-82
2021/08/19 12:48:08;;;;;;;6.90;3.38;;;21.90;92.20;;;;;;4982055;28;20059;-81
2021/08/19 12:50:37;;;;;;;7.15;3.20;;;22.00;92.30;;;;;;4997280;28;20051;-81
2021/08/19 12:53:06;;;;;;;10.30;2.92;;;22.10;92.20;;;;;;4982077;28;20422;-81
2021/08/19 12:55:35;;;;;;;7.45;2.88;;;22.20;92.30;;;;;;4998542;28;20053;-82